sensor_id;sensor_type;location;lat;lon;timestamp;temperature;humidity
13589;DHT22;6865;52.552;13.434;2022-07-04T00:02:18;21.70;89.80
13589;DHT22;6865;52.552;13.434;2022-07-04T00:04:45;21.70;90.10
13589;DHT22;6865;52.552;13.434;2022-07-04T00:07:12;21.70;90.30
13589;DHT22;6865;52.552;13.434;2022-07-04T00:09:39;21.60;90.70
13589;DHT22;6865;52.552;13.434;2022-07-04T00:12:07;21.50;91.10
13589;DHT22;6865;52.552;13.434;2022-07-04T00:14:33;21.50;91.50
13589;DHT22;6865;52.552;13.434;2022-07-04T00:17:06;21.60;92.10
13589;DHT22;6865;52.552;13.434;2022-07-04T00:19:33;21.30;92.50
13589;DHT22;6865;52.552;13.434;2022-07-04T00:22:00;21.30;92.90
13589;DHT22;6865;52.552;13.434;2022-07-04T00:24:27;21.20;93.20
13589;DHT22;6865;52.552;13.434;2022-07-04T00:26:54;21.00;93.60
13589;DHT22;6865;52.552;13.434;2022-07-04T00:29:21;21.10;94.20
13589;DHT22;6865;52.552;13.434;2022-07-04T00:31:47;21.00;94.70
13589;DHT22;6865;52.552;13.434;2022-07-04T00:34:14;20.90;95.10
13589;DHT22;6865;52.552;13.434;2022-07-04T00:36:47;20.90;95.70
13589;DHT22;6865;52.552;13.434;2022-07-04T00:39:14;20.80;96.30
13589;DHT22;6865;52.552;13.434;2022-07-04T00:41:41;20.70;96.90
13589;DHT22;6865;52.552;13.434;2022-07-04T00:44:10;20.70;97.50
13589;DHT22;6865;52.552;13.434;2022-07-04T00:46:40;20.60;98.10
13589;DHT22;6865;52.552;13.434;2022-07-04T00:49:08;20.50;98.80
13589;DHT22;6865;52.552;13.434;2022-07-04T00:51:37;20.50;99.40
13589;DHT22;6865;52.552;13.434;2022-07-04T00:54:06;20.40;99.80
13589;DHT22;6865;52.552;13.434;2022-07-04T00:56:35;20.30;99.90
13589;DHT22;6865;52.552;13.434;2022-07-04T00:59:09;20.20;99.90
13589;DHT22;6865;52.552;13.434;2022-07-04T01:01:36;20.30;99.90
13589;DHT22;6865;52.552;13.434;2022-07-04T01:04:04;20.20;99.90
13589;DHT22;6865;52.552;13.434;2022-07-04T01:06:32;20.20;99.90
13589;DHT22;6865;52.552;13.434;2022-07-04T01:08:59;20.10;99.90
13589;DHT22;6865;52.552;13.434;2022-07-04T01:11:26;20.10;99.90
13589;DHT22;6865;52.552;13.434;2022-07-04T01:13:57;20.10;99.90
13589;DHT22;6865;52.552;13.434;2022-07-04T01:16:25;20.00;99.90
13589;DHT22;6865;52.552;13.434;2022-07-04T01:18:53;20.00;99.90
13589;DHT22;6865;52.552;13.434;2022-07-04T01:21:20;19.90;99.90
13589;DHT22;6865;52.552;13.434;2022-07-04T01:23:48;19.90;99.90
13589;DHT22;6865;52.552;13.434;2022-07-04T01:26:14;19.70;99.90
13589;DHT22;6865;52.552;13.434;2022-07-04T01:28:41;19.80;99.90
13589;DHT22;6865;52.552;13.434;2022-07-04T01:31:07;19.80;99.90
13589;DHT22;6865;52.552;13.434;2022-07-04T01:33:34;19.80;99.90
13589;DHT22;6865;52.552;13.434;2022-07-04T01:36:01;19.70;99.90
13589;DHT22;6865;52.552;13.434;2022-07-04T01:38:28;19.60;99.90
13589;DHT22;6865;52.552;13.434;2022-07-04T01:40:54;19.60;99.90
13589;DHT22;6865;52.552;13.434;2022-07-04T01:43:21;19.40;99.90
13589;DHT22;6865;52.552;13.434;2022-07-04T01:45:48;19.40;99.90
13589;DHT22;6865;52.552;13.434;2022-07-04T01:48:14;19.50;99.90
13589;DHT22;6865;52.552;13.434;2022-07-04T01:50:42;19.30;99.90
13589;DHT22;6865;52.552;13.434;2022-07-04T01:53:08;19.30;99.90
13589;DHT22;6865;52.552;13.434;2022-07-04T01:55:35;19.20;99.90
13589;DHT22;6865;52.552;13.434;2022-07-04T01:58:02;19.20;99.90
13589;DHT22;6865;52.552;13.434;2022-07-04T02:00:29;19.20;99.90
13589;DHT22;6865;52.552;13.434;2022-07-04T02:03:14;19.20;99.90
13589;DHT22;6865;52.552;13.434;2022-07-04T02:05:43;19.10;99.90
13589;DHT22;6865;52.552;13.434;2022-07-04T02:08:09;19.00;99.90
13589;DHT22;6865;52.552;13.434;2022-07-04T02:10:37;19.00;99.90
13589;DHT22;6865;52.552;13.434;2022-07-04T02:13:03;19.00;99.90
13589;DHT22;6865;52.552;13.434;2022-07-04T02:15:38;18.90;99.90
13589;DHT22;6865;52.552;13.434;2022-07-04T02:18:08;18.80;99.90
13589;DHT22;6865;52.552;13.434;2022-07-04T02:20:35;18.70;99.90
13589;DHT22;6865;52.552;13.434;2022-07-04T02:23:03;18.70;99.90
13589;DHT22;6865;52.552;13.434;2022-07-04T02:25:30;18.60;99.90
13589;DHT22;6865;52.552;13.434;2022-07-04T02:27:57;18.60;99.90
13589;DHT22;6865;52.552;13.434;2022-07-04T02:30:24;18.60;99.90
13589;DHT22;6865;52.552;13.434;2022-07-04T02:32:51;18.50;99.90
13589;DHT22;6865;52.552;13.434;2022-07-04T02:35:18;18.40;99.90
13589;DHT22;6865;52.552;13.434;2022-07-04T02:37:44;18.30;99.90
13589;DHT22;6865;52.552;13.434;2022-07-04T02:40:11;18.40;99.90
13589;DHT22;6865;52.552;13.434;2022-07-04T02:42:38;18.30;99.90
13589;DHT22;6865;52.552;13.434;2022-07-04T02:45:06;18.30;99.90
13589;DHT22;6865;52.552;13.434;2022-07-04T02:47:32;18.20;99.90
13589;DHT22;6865;52.552;13.434;2022-07-04T02:49:59;18.20;99.90
13589;DHT22;6865;52.552;13.434;2022-07-04T02:52:29;18.10;99.90
13589;DHT22;6865;52.552;13.434;2022-07-04T02:54:56;18.10;99.90
13589;DHT22;6865;52.552;13.434;2022-07-04T02:57:24;18.10;99.90
13589;DHT22;6865;52.552;13.434;2022-07-04T02:59:50;18.10;99.90
13589;DHT22;6865;52.552;13.434;2022-07-04T03:02:17;18.00;99.90
13589;DHT22;6865;52.552;13.434;2022-07-04T03:04:44;18.00;99.90
13589;DHT22;6865;52.552;13.434;2022-07-04T03:07:11;18.00;99.90
13589;DHT22;6865;52.552;13.434;2022-07-04T03:09:38;18.00;99.90
13589;DHT22;6865;52.552;13.434;2022-07-04T03:12:05;17.90;99.90
13589;DHT22;6865;52.552;13.434;2022-07-04T03:14:31;18.00;99.90
13589;DHT22;6865;52.552;13.434;2022-07-04T03:16:58;18.00;99.90
13589;DHT22;6865;52.552;13.434;2022-07-04T03:19:25;18.00;99.90
13589;DHT22;6865;52.552;13.434;2022-07-04T03:21:52;18.00;99.90
13589;DHT22;6865;52.552;13.434;2022-07-04T03:24:19;17.50;99.90
13589;DHT22;6865;52.552;13.434;2022-07-04T03:26:45;17.90;99.90
13589;DHT22;6865;52.552;13.434;2022-07-04T03:29:12;17.90;99.90
13589;DHT22;6865;52.552;13.434;2022-07-04T03:31:38;17.90;99.90
13589;DHT22;6865;52.552;13.434;2022-07-04T03:34:05;18.00;99.90
13589;DHT22;6865;52.552;13.434;2022-07-04T03:36:32;18.00;99.90
13589;DHT22;6865;52.552;13.434;2022-07-04T03:38:58;18.00;99.90
13589;DHT22;6865;52.552;13.434;2022-07-04T03:41:25;18.00;99.90
13589;DHT22;6865;52.552;13.434;2022-07-04T03:43:52;18.10;99.90
13589;DHT22;6865;52.552;13.434;2022-07-04T03:46:18;18.10;99.90
13589;DHT22;6865;52.552;13.434;2022-07-04T03:48:45;18.10;99.90
13589;DHT22;6865;52.552;13.434;2022-07-04T03:51:12;18.20;99.90
13589;DHT22;6865;52.552;13.434;2022-07-04T03:53:39;18.20;99.90
13589;DHT22;6865;52.552;13.434;2022-07-04T03:56:06;18.20;99.90
13589;DHT22;6865;52.552;13.434;2022-07-04T03:58:34;18.20;99.90
13589;DHT22;6865;52.552;13.434;2022-07-04T04:01:01;18.20;99.90
13589;DHT22;6865;52.552;13.434;2022-07-04T04:03:27;18.30;99.90
13589;DHT22;6865;52.552;13.434;2022-07-04T04:06:12;18.30;99.90
13589;DHT22;6865;52.552;13.434;2022-07-04T04:08:39;18.30;99.90
13589;DHT22;6865;52.552;13.434;2022-07-04T04:11:06;18.30;99.90
13589;DHT22;6865;52.552;13.434;2022-07-04T04:13:32;18.40;99.90
13589;DHT22;6865;52.552;13.434;2022-07-04T04:15:59;18.40;99.90
13589;DHT22;6865;52.552;13.434;2022-07-04T04:18:26;18.40;99.90
13589;DHT22;6865;52.552;13.434;2022-07-04T04:20:52;18.50;99.90
13589;DHT22;6865;52.552;13.434;2022-07-04T04:23:19;18.40;99.90
13589;DHT22;6865;52.552;13.434;2022-07-04T04:25:47;18.50;99.90
13589;DHT22;6865;52.552;13.434;2022-07-04T04:28:21;18.50;99.90
13589;DHT22;6865;52.552;13.434;2022-07-04T04:30:48;18.60;99.90
13589;DHT22;6865;52.552;13.434;2022-07-04T04:33:14;18.50;99.90
13589;DHT22;6865;52.552;13.434;2022-07-04T04:35:41;18.50;99.90
13589;DHT22;6865;52.552;13.434;2022-07-04T04:38:08;18.40;99.90
13589;DHT22;6865;52.552;13.434;2022-07-04T04:40:35;18.40;99.90
13589;DHT22;6865;52.552;13.434;2022-07-04T04:43:02;18.50;99.90
13589;DHT22;6865;52.552;13.434;2022-07-04T04:45:28;18.50;99.90
13589;DHT22;6865;52.552;13.434;2022-07-04T04:47:55;18.50;99.90
13589;DHT22;6865;52.552;13.434;2022-07-04T04:50:21;18.60;99.90
13589;DHT22;6865;52.552;13.434;2022-07-04T04:52:48;18.60;99.90
13589;DHT22;6865;52.552;13.434;2022-07-04T04:55:15;18.60;99.90
13589;DHT22;6865;52.552;13.434;2022-07-04T04:57:41;18.80;99.90
13589;DHT22;6865;52.552;13.434;2022-07-04T05:00:08;18.80;99.90
13589;DHT22;6865;52.552;13.434;2022-07-04T05:02:35;18.90;99.90
13589;DHT22;6865;52.552;13.434;2022-07-04T05:05:02;19.00;99.90
13589;DHT22;6865;52.552;13.434;2022-07-04T05:07:29;19.10;99.90
13589;DHT22;6865;52.552;13.434;2022-07-04T05:09:55;19.20;99.90
13589;DHT22;6865;52.552;13.434;2022-07-04T05:12:26;19.20;99.90
13589;DHT22;6865;52.552;13.434;2022-07-04T05:14:54;19.30;99.90
13589;DHT22;6865;52.552;13.434;2022-07-04T05:17:21;19.40;99.90
13589;DHT22;6865;52.552;13.434;2022-07-04T05:19:48;19.60;99.90
13589;DHT22;6865;52.552;13.434;2022-07-04T05:22:15;19.90;99.90
13589;DHT22;6865;52.552;13.434;2022-07-04T05:24:42;20.10;99.90
13589;DHT22;6865;52.552;13.434;2022-07-04T05:27:09;20.20;99.90
13589;DHT22;6865;52.552;13.434;2022-07-04T05:29:36;20.20;99.90
13589;DHT22;6865;52.552;13.434;2022-07-04T05:32:05;20.30;99.90
13589;DHT22;6865;52.552;13.434;2022-07-04T05:34:31;20.30;99.90
13589;DHT22;6865;52.552;13.434;2022-07-04T05:36:58;20.50;99.90
13589;DHT22;6865;52.552;13.434;2022-07-04T05:39:25;20.30;99.90
13589;DHT22;6865;52.552;13.434;2022-07-04T05:41:51;20.20;99.90
13589;DHT22;6865;52.552;13.434;2022-07-04T05:44:18;20.00;99.90
13589;DHT22;6865;52.552;13.434;2022-07-04T05:46:45;20.10;99.90
13589;DHT22;6865;52.552;13.434;2022-07-04T05:49:11;20.10;99.90
13589;DHT22;6865;52.552;13.434;2022-07-04T05:51:38;20.20;99.90
13589;DHT22;6865;52.552;13.434;2022-07-04T05:54:05;20.20;99.90
13589;DHT22;6865;52.552;13.434;2022-07-04T05:56:31;20.20;99.90
13589;DHT22;6865;52.552;13.434;2022-07-04T05:58:58;20.40;99.90
13589;DHT22;6865;52.552;13.434;2022-07-04T06:01:25;20.50;99.90
13589;DHT22;6865;52.552;13.434;2022-07-04T06:03:52;20.40;99.90
13589;DHT22;6865;52.552;13.434;2022-07-04T06:06:18;20.50;99.90
13589;DHT22;6865;52.552;13.434;2022-07-04T06:08:45;20.60;99.90
13589;DHT22;6865;52.552;13.434;2022-07-04T06:11:12;20.60;99.90
13589;DHT22;6865;52.552;13.434;2022-07-04T06:13:38;20.70;99.90
13589;DHT22;6865;52.552;13.434;2022-07-04T06:16:05;20.60;99.90
13589;DHT22;6865;52.552;13.434;2022-07-04T06:18:32;20.60;99.90
13589;DHT22;6865;52.552;13.434;2022-07-04T06:20:58;20.50;99.90
13589;DHT22;6865;52.552;13.434;2022-07-04T06:23:25;20.50;99.90
13589;DHT22;6865;52.552;13.434;2022-07-04T06:25:52;20.60;99.90
13589;DHT22;6865;52.552;13.434;2022-07-04T06:28:18;20.70;99.90
13589;DHT22;6865;52.552;13.434;2022-07-04T06:31:05;20.60;99.90
13589;DHT22;6865;52.552;13.434;2022-07-04T06:33:32;20.60;99.90
13589;DHT22;6865;52.552;13.434;2022-07-04T06:35:58;20.60;99.90
13589;DHT22;6865;52.552;13.434;2022-07-04T06:38:27;20.60;99.90
13589;DHT22;6865;52.552;13.434;2022-07-04T06:40:58;20.50;99.90
13589;DHT22;6865;52.552;13.434;2022-07-04T06:43:25;20.50;99.90
13589;DHT22;6865;52.552;13.434;2022-07-04T06:45:52;20.50;99.90
13589;DHT22;6865;52.552;13.434;2022-07-04T06:48:19;20.50;99.90
13589;DHT22;6865;52.552;13.434;2022-07-04T06:50:45;20.80;99.90
13589;DHT22;6865;52.552;13.434;2022-07-04T06:53:12;20.70;99.90
13589;DHT22;6865;52.552;13.434;2022-07-04T06:55:40;20.80;99.90
13589;DHT22;6865;52.552;13.434;2022-07-04T06:58:08;20.90;99.90
13589;DHT22;6865;52.552;13.434;2022-07-04T07:00:36;20.90;99.90
13589;DHT22;6865;52.552;13.434;2022-07-04T07:03:03;21.00;99.90
13589;DHT22;6865;52.552;13.434;2022-07-04T07:05:30;21.20;99.90
13589;DHT22;6865;52.552;13.434;2022-07-04T07:08:17;21.30;99.90
13589;DHT22;6865;52.552;13.434;2022-07-04T07:10:44;21.30;99.90
13589;DHT22;6865;52.552;13.434;2022-07-04T07:13:11;21.40;99.70
13589;DHT22;6865;52.552;13.434;2022-07-04T07:15:37;21.50;99.20
13589;DHT22;6865;52.552;13.434;2022-07-04T07:18:04;21.60;98.90
13589;DHT22;6865;52.552;13.434;2022-07-04T07:20:31;21.80;98.40
13589;DHT22;6865;52.552;13.434;2022-07-04T07:22:58;21.80;97.40
13589;DHT22;6865;52.552;13.434;2022-07-04T07:25:25;21.90;96.70
13589;DHT22;6865;52.552;13.434;2022-07-04T07:27:51;21.90;96.30
13589;DHT22;6865;52.552;13.434;2022-07-04T07:30:18;22.00;95.50
13589;DHT22;6865;52.552;13.434;2022-07-04T07:32:45;22.20;95.80
13589;DHT22;6865;52.552;13.434;2022-07-04T07:35:11;22.40;95.60
13589;DHT22;6865;52.552;13.434;2022-07-04T07:37:38;22.70;94.80
13589;DHT22;6865;52.552;13.434;2022-07-04T07:40:05;22.80;94.60
13589;DHT22;6865;52.552;13.434;2022-07-04T07:42:32;22.80;94.30
13589;DHT22;6865;52.552;13.434;2022-07-04T07:45:00;22.70;93.70
13589;DHT22;6865;52.552;13.434;2022-07-04T07:47:27;22.50;94.20
13589;DHT22;6865;52.552;13.434;2022-07-04T07:49:54;22.30;94.60
13589;DHT22;6865;52.552;13.434;2022-07-04T07:52:22;22.20;95.20
13589;DHT22;6865;52.552;13.434;2022-07-04T07:54:53;22.20;95.50
13589;DHT22;6865;52.552;13.434;2022-07-04T07:57:28;21.90;96.20
13589;DHT22;6865;52.552;13.434;2022-07-04T07:59:56;22.00;96.30
13589;DHT22;6865;52.552;13.434;2022-07-04T08:02:23;21.80;96.10
13589;DHT22;6865;52.552;13.434;2022-07-04T08:05:09;21.80;96.20
13589;DHT22;6865;52.552;13.434;2022-07-04T08:07:36;21.70;96.20
13589;DHT22;6865;52.552;13.434;2022-07-04T08:10:03;21.80;96.40
13589;DHT22;6865;52.552;13.434;2022-07-04T08:12:30;22.00;96.50
13589;DHT22;6865;52.552;13.434;2022-07-04T08:14:58;22.20;96.00
13589;DHT22;6865;52.552;13.434;2022-07-04T08:17:32;22.50;94.60
13589;DHT22;6865;52.552;13.434;2022-07-04T08:19:59;22.50;94.10
13589;DHT22;6865;52.552;13.434;2022-07-04T08:22:25;22.60;93.50
13589;DHT22;6865;52.552;13.434;2022-07-04T08:24:52;22.80;93.10
13589;DHT22;6865;52.552;13.434;2022-07-04T08:27:19;22.60;92.50
13589;DHT22;6865;52.552;13.434;2022-07-04T08:29:46;22.50;92.50
13589;DHT22;6865;52.552;13.434;2022-07-04T08:32:14;22.50;92.10
13589;DHT22;6865;52.552;13.434;2022-07-04T08:34:41;22.40;92.60
13589;DHT22;6865;52.552;13.434;2022-07-04T08:37:09;22.20;93.30
13589;DHT22;6865;52.552;13.434;2022-07-04T08:39:35;22.30;93.10
13589;DHT22;6865;52.552;13.434;2022-07-04T08:42:06;22.40;93.10
13589;DHT22;6865;52.552;13.434;2022-07-04T08:44:38;22.50;93.20
13589;DHT22;6865;52.552;13.434;2022-07-04T08:47:09;22.60;93.50
13589;DHT22;6865;52.552;13.434;2022-07-04T08:50:30;22.80;93.30
13589;DHT22;6865;52.552;13.434;2022-07-04T08:52:36;22.80;93.00
13589;DHT22;6865;52.552;13.434;2022-07-04T08:55:04;22.90;93.00
13589;DHT22;6865;52.552;13.434;2022-07-04T08:57:51;23.10;92.90
13589;DHT22;6865;52.552;13.434;2022-07-04T09:00:36;23.20;92.30
13589;DHT22;6865;52.552;13.434;2022-07-04T09:03:03;23.50;91.80
13589;DHT22;6865;52.552;13.434;2022-07-04T09:05:31;23.50;91.00
13589;DHT22;6865;52.552;13.434;2022-07-04T09:08:02;23.70;90.20
13589;DHT22;6865;52.552;13.434;2022-07-04T09:10:30;23.90;88.00
13589;DHT22;6865;52.552;13.434;2022-07-04T09:12:57;24.10;87.90
13589;DHT22;6865;52.552;13.434;2022-07-04T09:15:39;24.10;88.20
13589;DHT22;6865;52.552;13.434;2022-07-04T09:18:06;24.10;89.00
13589;DHT22;6865;52.552;13.434;2022-07-04T09:20:33;24.10;89.10
13589;DHT22;6865;52.552;13.434;2022-07-04T09:23:00;24.00;89.70
13589;DHT22;6865;52.552;13.434;2022-07-04T09:25:26;24.20;89.10
13589;DHT22;6865;52.552;13.434;2022-07-04T09:27:55;24.30;88.30
13589;DHT22;6865;52.552;13.434;2022-07-04T09:30:27;24.20;88.40
13589;DHT22;6865;52.552;13.434;2022-07-04T09:32:56;24.30;87.20
13589;DHT22;6865;52.552;13.434;2022-07-04T09:35:31;24.20;87.00
13589;DHT22;6865;52.552;13.434;2022-07-04T09:38:03;24.00;86.80
13589;DHT22;6865;52.552;13.434;2022-07-04T09:40:33;24.10;86.70
13589;DHT22;6865;52.552;13.434;2022-07-04T09:43:02;24.10;86.20
13589;DHT22;6865;52.552;13.434;2022-07-04T09:45:53;24.00;86.70
13589;DHT22;6865;52.552;13.434;2022-07-04T09:48:20;24.20;86.10
13589;DHT22;6865;52.552;13.434;2022-07-04T09:50:47;24.30;83.50
13589;DHT22;6865;52.552;13.434;2022-07-04T09:53:14;24.50;81.90
13589;DHT22;6865;52.552;13.434;2022-07-04T09:55:41;24.60;80.60
13589;DHT22;6865;52.552;13.434;2022-07-04T09:58:10;24.70;81.60
13589;DHT22;6865;52.552;13.434;2022-07-04T10:00:42;24.70;81.00
13589;DHT22;6865;52.552;13.434;2022-07-04T10:03:23;24.70;82.00
13589;DHT22;6865;52.552;13.434;2022-07-04T10:06:09;24.70;81.10
13589;DHT22;6865;52.552;13.434;2022-07-04T10:08:38;24.70;79.30
13589;DHT22;6865;52.552;13.434;2022-07-04T10:11:06;24.70;78.40
13589;DHT22;6865;52.552;13.434;2022-07-04T10:13:37;24.90;78.60
13589;DHT22;6865;52.552;13.434;2022-07-04T10:16:04;25.10;77.70
13589;DHT22;6865;52.552;13.434;2022-07-04T10:18:31;25.10;77.40
13589;DHT22;6865;52.552;13.434;2022-07-04T10:20:58;24.90;77.00
13589;DHT22;6865;52.552;13.434;2022-07-04T10:23:25;24.70;76.20
13589;DHT22;6865;52.552;13.434;2022-07-04T10:25:58;24.70;75.40
13589;DHT22;6865;52.552;13.434;2022-07-04T10:28:25;24.80;75.70
13589;DHT22;6865;52.552;13.434;2022-07-04T10:30:53;24.90;75.60
13589;DHT22;6865;52.552;13.434;2022-07-04T10:33:28;25.10;75.10
13589;DHT22;6865;52.552;13.434;2022-07-04T10:35:59;25.20;74.30
13589;DHT22;6865;52.552;13.434;2022-07-04T10:38:31;25.10;75.40
13589;DHT22;6865;52.552;13.434;2022-07-04T10:41:02;25.00;75.00
13589;DHT22;6865;52.552;13.434;2022-07-04T10:48:50;24.90;74.10
13589;DHT22;6865;52.552;13.434;2022-07-04T10:51:44;24.50;74.80
13589;DHT22;6865;52.552;13.434;2022-07-04T10:54:32;24.40;75.30
13589;DHT22;6865;52.552;13.434;2022-07-04T10:59:41;24.00;77.60
13589;DHT22;6865;52.552;13.434;2022-07-04T11:05:05;24.30;78.30
13589;DHT22;6865;52.552;13.434;2022-07-04T11:07:56;24.40;77.50
13589;DHT22;6865;52.552;13.434;2022-07-04T11:10:24;24.50;77.40
13589;DHT22;6865;52.552;13.434;2022-07-04T11:18:02;24.70;77.50
13589;DHT22;6865;52.552;13.434;2022-07-04T11:20:33;24.70;77.00
13589;DHT22;6865;52.552;13.434;2022-07-04T11:23:19;24.80;76.30
13589;DHT22;6865;52.552;13.434;2022-07-04T11:25:48;24.80;76.00
13589;DHT22;6865;52.552;13.434;2022-07-04T11:28:31;24.70;76.20
13589;DHT22;6865;52.552;13.434;2022-07-04T11:31:12;24.80;75.90
13589;DHT22;6865;52.552;13.434;2022-07-04T11:33:40;24.80;75.00
13589;DHT22;6865;52.552;13.434;2022-07-04T11:36:13;24.90;74.30
13589;DHT22;6865;52.552;13.434;2022-07-04T11:38:58;25.30;74.30
13589;DHT22;6865;52.552;13.434;2022-07-04T11:41:33;25.40;73.80
13589;DHT22;6865;52.552;13.434;2022-07-04T11:44:21;25.40;73.10
13589;DHT22;6865;52.552;13.434;2022-07-04T11:47:31;25.60;72.40
13589;DHT22;6865;52.552;13.434;2022-07-04T11:49:59;25.50;72.20
13589;DHT22;6865;52.552;13.434;2022-07-04T11:52:28;24.80;73.30
13589;DHT22;6865;52.552;13.434;2022-07-04T11:55:16;24.40;74.40
13589;DHT22;6865;52.552;13.434;2022-07-04T11:57:48;24.40;74.70
13589;DHT22;6865;52.552;13.434;2022-07-04T12:00:17;24.50;74.20
13589;DHT22;6865;52.552;13.434;2022-07-04T12:02:46;24.50;74.40
13589;DHT22;6865;52.552;13.434;2022-07-04T12:05:15;24.50;74.30
13589;DHT22;6865;52.552;13.434;2022-07-04T12:07:44;24.90;73.80
13589;DHT22;6865;52.552;13.434;2022-07-04T12:10:31;24.90;72.90
13589;DHT22;6865;52.552;13.434;2022-07-04T12:13:05;25.20;71.20
13589;DHT22;6865;52.552;13.434;2022-07-04T12:15:38;25.30;71.40
13589;DHT22;6865;52.552;13.434;2022-07-04T12:18:16;25.30;71.20
13589;DHT22;6865;52.552;13.434;2022-07-04T12:20:43;25.20;70.20
13589;DHT22;6865;52.552;13.434;2022-07-04T12:23:11;25.20;70.30
13589;DHT22;6865;52.552;13.434;2022-07-04T12:25:39;25.30;69.20
13589;DHT22;6865;52.552;13.434;2022-07-04T12:28:12;25.50;68.60
13589;DHT22;6865;52.552;13.434;2022-07-04T12:30:54;25.20;68.20
13589;DHT22;6865;52.552;13.434;2022-07-04T12:33:23;25.10;69.00
13589;DHT22;6865;52.552;13.434;2022-07-04T12:35:52;25.00;70.10
13589;DHT22;6865;52.552;13.434;2022-07-04T12:38:21;25.10;69.70
13589;DHT22;6865;52.552;13.434;2022-07-04T12:43:45;25.00;68.30
13589;DHT22;6865;52.552;13.434;2022-07-04T12:48:53;25.10;68.70
13589;DHT22;6865;52.552;13.434;2022-07-04T12:51:25;25.10;69.20
13589;DHT22;6865;52.552;13.434;2022-07-04T12:53:54;25.10;68.20
13589;DHT22;6865;52.552;13.434;2022-07-04T12:56:38;25.20;68.50
13589;DHT22;6865;52.552;13.434;2022-07-04T12:59:10;25.20;66.60
13589;DHT22;6865;52.552;13.434;2022-07-04T13:01:40;25.10;66.70
13589;DHT22;6865;52.552;13.434;2022-07-04T13:04:08;24.90;66.30
13589;DHT22;6865;52.552;13.434;2022-07-04T13:06:35;25.10;66.70
13589;DHT22;6865;52.552;13.434;2022-07-04T13:09:03;25.20;66.20
13589;DHT22;6865;52.552;13.434;2022-07-04T13:11:30;25.40;65.50
13589;DHT22;6865;52.552;13.434;2022-07-04T13:14:15;25.50;65.30
13589;DHT22;6865;52.552;13.434;2022-07-04T13:16:42;25.30;65.60
13589;DHT22;6865;52.552;13.434;2022-07-04T13:19:08;25.40;65.10
13589;DHT22;6865;52.552;13.434;2022-07-04T13:21:35;25.60;64.20
13589;DHT22;6865;52.552;13.434;2022-07-04T13:24:02;25.50;64.30
13589;DHT22;6865;52.552;13.434;2022-07-04T13:26:29;25.30;64.20
13589;DHT22;6865;52.552;13.434;2022-07-04T13:28:57;25.40;63.90
13589;DHT22;6865;52.552;13.434;2022-07-04T13:31:23;25.30;64.80
13589;DHT22;6865;52.552;13.434;2022-07-04T13:33:53;25.30;64.10
13589;DHT22;6865;52.552;13.434;2022-07-04T13:36:21;25.10;64.30
13589;DHT22;6865;52.552;13.434;2022-07-04T13:38:48;25.20;64.30
13589;DHT22;6865;52.552;13.434;2022-07-04T13:41:34;25.50;63.90
13589;DHT22;6865;52.552;13.434;2022-07-04T13:44:02;25.60;62.90
13589;DHT22;6865;52.552;13.434;2022-07-04T13:46:29;25.70;62.50
13589;DHT22;6865;52.552;13.434;2022-07-04T13:48:55;25.70;62.30
13589;DHT22;6865;52.552;13.434;2022-07-04T13:51:22;25.80;62.50
13589;DHT22;6865;52.552;13.434;2022-07-04T13:53:49;25.80;62.20
13589;DHT22;6865;52.552;13.434;2022-07-04T13:56:16;25.70;61.60
13589;DHT22;6865;52.552;13.434;2022-07-04T13:58:44;25.40;60.90
13589;DHT22;6865;52.552;13.434;2022-07-04T14:01:12;25.30;62.40
13589;DHT22;6865;52.552;13.434;2022-07-04T14:03:40;25.20;61.80
13589;DHT22;6865;52.552;13.434;2022-07-04T14:06:09;25.00;62.70
13589;DHT22;6865;52.552;13.434;2022-07-04T14:08:36;25.00;63.20
13589;DHT22;6865;52.552;13.434;2022-07-04T14:11:02;24.90;63.10
13589;DHT22;6865;52.552;13.434;2022-07-04T14:13:29;24.90;63.30
13589;DHT22;6865;52.552;13.434;2022-07-04T14:15:56;25.00;62.80
13589;DHT22;6865;52.552;13.434;2022-07-04T14:18:22;25.10;61.80
13589;DHT22;6865;52.552;13.434;2022-07-04T14:20:49;24.90;62.30
13589;DHT22;6865;52.552;13.434;2022-07-04T14:23:17;24.80;62.20
13589;DHT22;6865;52.552;13.434;2022-07-04T14:26:03;24.90;62.10
13589;DHT22;6865;52.552;13.434;2022-07-04T14:28:31;25.20;61.30
13589;DHT22;6865;52.552;13.434;2022-07-04T14:30:58;25.10;61.30
13589;DHT22;6865;52.552;13.434;2022-07-04T14:33:25;25.30;61.50
13589;DHT22;6865;52.552;13.434;2022-07-04T14:35:52;25.00;61.50
13589;DHT22;6865;52.552;13.434;2022-07-04T14:38:19;25.10;61.30
13589;DHT22;6865;52.552;13.434;2022-07-04T14:40:46;25.20;60.90
13589;DHT22;6865;52.552;13.434;2022-07-04T14:43:17;25.00;60.50
13589;DHT22;6865;52.552;13.434;2022-07-04T14:45:46;25.20;59.60
13589;DHT22;6865;52.552;13.434;2022-07-04T14:48:14;25.30;59.50
13589;DHT22;6865;52.552;13.434;2022-07-04T14:50:41;25.10;59.70
13589;DHT22;6865;52.552;13.434;2022-07-04T14:53:07;25.20;60.00
13589;DHT22;6865;52.552;13.434;2022-07-04T14:55:37;25.20;59.50
13589;DHT22;6865;52.552;13.434;2022-07-04T14:58:04;25.20;59.20
13589;DHT22;6865;52.552;13.434;2022-07-04T15:00:31;25.10;60.00
13589;DHT22;6865;52.552;13.434;2022-07-04T15:02:58;25.10;60.50
13589;DHT22;6865;52.552;13.434;2022-07-04T15:05:24;25.10;60.00
13589;DHT22;6865;52.552;13.434;2022-07-04T15:07:51;25.10;60.00
13589;DHT22;6865;52.552;13.434;2022-07-04T15:10:25;25.30;59.90
13589;DHT22;6865;52.552;13.434;2022-07-04T15:13:11;25.50;59.80
13589;DHT22;6865;52.552;13.434;2022-07-04T15:15:39;25.50;59.30
13589;DHT22;6865;52.552;13.434;2022-07-04T15:18:10;25.40;58.90
13589;DHT22;6865;52.552;13.434;2022-07-04T15:20:38;25.30;59.10
13589;DHT22;6865;52.552;13.434;2022-07-04T15:23:24;24.90;59.50
13589;DHT22;6865;52.552;13.434;2022-07-04T15:26:09;24.40;60.50
13589;DHT22;6865;52.552;13.434;2022-07-04T15:28:36;24.30;61.40
13589;DHT22;6865;52.552;13.434;2022-07-04T15:31:03;24.20;61.30
13589;DHT22;6865;52.552;13.434;2022-07-04T15:33:30;24.20;60.60
13589;DHT22;6865;52.552;13.434;2022-07-04T15:35:57;24.30;60.90
13589;DHT22;6865;52.552;13.434;2022-07-04T15:38:24;24.20;61.40
13589;DHT22;6865;52.552;13.434;2022-07-04T15:40:50;24.20;61.30
13589;DHT22;6865;52.552;13.434;2022-07-04T15:43:17;24.20;61.20
13589;DHT22;6865;52.552;13.434;2022-07-04T15:45:44;24.20;61.00
13589;DHT22;6865;52.552;13.434;2022-07-04T15:48:11;24.20;60.90
13589;DHT22;6865;52.552;13.434;2022-07-04T15:50:38;24.40;61.20
13589;DHT22;6865;52.552;13.434;2022-07-04T15:53:04;24.30;60.50
13589;DHT22;6865;52.552;13.434;2022-07-04T15:55:31;24.40;60.70
13589;DHT22;6865;52.552;13.434;2022-07-04T15:57:58;24.40;60.50
13589;DHT22;6865;52.552;13.434;2022-07-04T16:00:25;24.30;59.70
13589;DHT22;6865;52.552;13.434;2022-07-04T16:02:52;24.20;59.40
13589;DHT22;6865;52.552;13.434;2022-07-04T16:05:19;24.20;59.90